LavenderCAM.net
Leatherhead Weather
 
 





Member of StrikeStar EU

Aviation weather for

London Heathrow (EGLL) and London Gatwick (EGKK)



London Heathrow (EGLL) METAR / Surface Actual
London / Heathrow Airport, United Kingdom (EGLL) 51-29N 000-27W 0M
Oct 21, 2017 - 03:50 AM EDT / 2017.10.21 0750 UTC
Wind: from the SSW (210 degrees) at 18 MPH (16 KT):0
Visibility: greater than 7 mile(s):0
Sky conditions: partly cloudy
Weather: light rain; Cumulonimbus clouds observed
Temperature: 55 F (13 C)
Dew Point: 48 F (9 C)
Relative Humidity: 76%
Pressure (altimeter): 29.59 in. Hg (1002 hPa)
ob: EGLL 210750Z AUTO 21016KT 9999 -RA SCT043/// //////CB 13/09 Q1002 TEMPO SHRA
cycle: 8
London Heathrow (EGLL) TAF / Forecast
2017/10/21 06:15
TAF EGLL 210451Z 2106/2212 20014KT 9999 SCT025 
      BECMG 2106/2109 21020G32KT 
      TEMPO 2106/2124 7000 SHRA PROB30 
      TEMPO 2111/2117 22025G42KT 4000 +SHRA BKN014CB 
      BECMG 2118/2121 26018G30KT PROB30 
      TEMPO 2204/2209 7000 RA


London Gatwick (EGKK) METAR / Surface Actual
London / Gatwick Airport, United Kingdom (EGKK) 51-09N 000-11W 0M
Oct 21, 2017 - 03:50 AM EDT / 2017.10.21 0750 UTC
Wind: from the SSW (210 degrees) at 14 MPH (12 KT) gusting to 28 MPH (24 KT):0
Visibility: greater than 7 mile(s):0
Sky conditions: partly cloudy
Temperature: 53 F (12 C)
Dew Point: 50 F (10 C)
Relative Humidity: 87%
Pressure (altimeter): 29.65 in. Hg (1004 hPa)
ob: EGKK 210750Z 21012G24KT 9999 FEW012 SCT028 12/10 Q1004
cycle: 8
London Gatwick (EGKK) TAF / Forecast
2017/10/21 06:15
TAF EGKK 210452Z 2106/2212 23012KT 9999 SCT020 
      BECMG 2106/2109 22020G32KT 
      TEMPO 2106/2123 7000 SHRA PROB30 
      TEMPO 2110/2120 23030G45KT 4000 +SHRA BKN014CB PROB30 
      TEMPO 2120/2207 -RA BKN015 
      BECMG 2121/2124 23015KT PROB30 
      TEMPO 2200/2206 23015G25KT 
      BECMG 2206/2209 26015G25KT